createdAt,value
2022-12-19T00:00:38.060Z,15.50
2022-12-19T00:03:06.859Z,15.68
2022-12-19T00:05:39.892Z,15.73
2022-12-19T00:08:16.946Z,15.85
2022-12-19T00:10:46.044Z,15.57
2022-12-19T00:13:17.097Z,15.50
2022-12-19T00:15:45.609Z,15.63
2022-12-19T00:18:14.067Z,15.90
2022-12-19T00:20:43.993Z,14.65
2022-12-19T00:23:12.465Z,15.60
2022-12-19T00:25:49.709Z,16.35
2022-12-19T00:28:19.181Z,14.95
2022-12-19T00:30:49.789Z,15.43
2022-12-19T00:33:20.255Z,15.73
2022-12-19T00:35:50.302Z,14.98
2022-12-19T00:38:18.772Z,15.68
2022-12-19T00:40:47.571Z,15.32
2022-12-19T00:43:15.961Z,15.45
2022-12-19T00:45:44.521Z,14.98
2022-12-19T00:48:13.241Z,15.15
2022-12-19T00:50:44.495Z,15.00
2022-12-19T00:53:14.536Z,14.65
2022-12-19T00:55:43.089Z,14.65
2022-12-19T00:58:11.657Z,15.25
2022-12-19T01:00:40.780Z,14.38
2022-12-19T01:03:11.880Z,15.30
2022-12-19T01:05:40.805Z,14.93
2022-12-19T01:08:10.635Z,15.23
2022-12-19T01:10:46.418Z,14.90
2022-12-19T01:13:14.104Z,14.60
2022-12-19T01:15:42.603Z,13.73
2022-12-19T01:18:11.286Z,14.25
2022-12-19T01:20:40.561Z,13.93
2022-12-19T01:23:09.167Z,14.02
2022-12-19T01:25:40.156Z,14.60
2022-12-19T01:28:14.426Z,13.93
2022-12-19T01:30:44.185Z,14.20
2022-12-19T01:33:13.576Z,13.50
2022-12-19T01:35:42.334Z,14.25
2022-12-19T01:38:13.502Z,13.70
2022-12-19T01:40:50.800Z,14.00
2022-12-19T01:43:19.267Z,13.55
2022-12-19T01:45:48.935Z,13.82
2022-12-19T01:48:20.090Z,13.85
2022-12-19T01:51:01.046Z,13.85
2022-12-19T01:53:34.997Z,13.35
2022-12-19T01:56:09.114Z,13.50
2022-12-19T01:58:40.725Z,13.93
2022-12-19T02:01:09.349Z,13.55
2022-12-19T02:03:39.647Z,13.82
2022-12-19T02:06:09.592Z,13.60
2022-12-19T02:08:38.215Z,13.20
2022-12-19T02:11:08.060Z,13.13
2022-12-19T02:13:36.556Z,13.05
2022-12-19T02:16:11.040Z,13.15
2022-12-19T02:18:45.832Z,13.63
2022-12-19T02:21:29.497Z,13.40
2022-12-19T02:24:41.508Z,12.90
2022-12-19T02:27:42.847Z,13.15
2022-12-19T02:30:13.682Z,13.15
2022-12-19T02:32:52.887Z,13.13
2022-12-19T02:35:28.087Z,12.88
2022-12-19T02:38:01.916Z,13.15
2022-12-19T02:40:35.239Z,12.50
2022-12-19T02:43:03.747Z,12.60
2022-12-19T02:45:35.101Z,12.55
2022-12-19T02:48:08.768Z,12.10
2022-12-19T02:50:39.678Z,13.13
2022-12-19T02:53:08.452Z,13.18
2022-12-19T02:55:40.724Z,13.15
2022-12-19T02:58:27.603Z,13.32
2022-12-19T03:00:59.200Z,12.50
2022-12-19T03:03:35.362Z,12.70
2022-12-19T03:06:08.547Z,13.60
2022-12-19T03:08:39.648Z,12.40
2022-12-19T03:11:09.569Z,12.90
2022-12-19T03:13:40.455Z,13.15
2022-12-19T03:16:10.189Z,12.52
2022-12-19T03:18:40.121Z,12.30
2022-12-19T03:21:12.456Z,12.95
2022-12-19T03:23:41.237Z,12.15
2022-12-19T03:26:11.798Z,12.70
2022-12-19T03:28:44.202Z,12.27
2022-12-19T03:31:13.216Z,11.85
2022-12-19T03:33:43.168Z,13.10
2022-12-19T03:36:14.198Z,12.15
2022-12-19T03:38:42.786Z,12.30
2022-12-19T03:41:12.252Z,13.00
2022-12-19T03:43:39.679Z,12.63
2022-12-19T03:46:14.119Z,12.48
2022-12-19T03:48:46.142Z,12.95
2022-12-19T03:51:21.647Z,12.55
2022-12-19T03:53:57.147Z,12.10
2022-12-19T03:56:33.198Z,12.25
2022-12-19T03:59:06.123Z,12.75
2022-12-19T04:01:35.224Z,12.00
2022-12-19T04:04:05.883Z,13.07
2022-12-19T04:06:35.205Z,12.63
2022-12-19T04:09:03.926Z,13.07
2022-12-19T04:11:36.644Z,12.07
2022-12-19T04:14:08.753Z,12.65
2022-12-19T04:16:41.226Z,12.60
2022-12-19T04:19:14.708Z,12.10
2022-12-19T04:21:45.137Z,12.65
2022-12-19T04:24:20.588Z,13.15
2022-12-19T04:26:49.852Z,12.82
2022-12-19T04:29:18.365Z,12.50
2022-12-19T04:31:46.916Z,12.88
2022-12-19T04:34:17.196Z,11.23
2022-12-19T04:36:45.773Z,13.00
2022-12-19T04:39:14.333Z,12.30
2022-12-19T04:41:42.751Z,12.27
2022-12-19T04:44:11.394Z,12.40
2022-12-19T04:46:40.009Z,12.75
2022-12-19T04:49:08.835Z,11.63
2022-12-19T04:51:38.859Z,12.70
2022-12-19T04:54:07.362Z,12.52
2022-12-19T04:56:35.888Z,12.70
2022-12-19T04:59:04.428Z,12.35
2022-12-19T05:01:33.111Z,13.60
2022-12-19T05:04:04.606Z,12.30
2022-12-19T05:06:33.904Z,12.63
2022-12-19T05:09:03.788Z,12.38
2022-12-19T05:11:32.225Z,13.00
2022-12-19T05:14:00.820Z,12.15
2022-12-19T05:16:29.378Z,12.05
2022-12-19T05:18:58.029Z,12.82
2022-12-19T05:21:26.731Z,12.63
2022-12-19T05:23:55.317Z,12.40
2022-12-19T05:26:25.398Z,13.00
2022-12-19T05:28:54.096Z,13.20
2022-12-19T05:31:22.722Z,12.98
2022-12-19T05:33:51.679Z,12.23
2022-12-19T05:36:20.330Z,12.63
2022-12-19T05:38:48.902Z,12.68
2022-12-19T05:41:18.417Z,13.00
2022-12-19T05:43:51.233Z,12.15
2022-12-19T05:46:19.791Z,12.32
2022-12-19T05:48:48.509Z,12.40
2022-12-19T05:51:17.706Z,12.35
2022-12-19T05:53:46.147Z,13.10
2022-12-19T05:56:16.823Z,12.82
2022-12-19T05:58:48.432Z,12.80
2022-12-19T06:01:18.976Z,13.23
2022-12-19T06:03:47.673Z,12.40
2022-12-19T06:06:17.683Z,12.65
2022-12-19T06:08:53.842Z,12.30
2022-12-19T06:11:22.473Z,13.02
2022-12-19T06:13:52.449Z,12.48
2022-12-19T06:16:22.100Z,12.90
2022-12-19T06:18:50.686Z,12.70
2022-12-19T06:21:20.367Z,13.02
2022-12-19T06:23:48.855Z,13.35
2022-12-19T06:26:20.305Z,12.40
2022-12-19T06:28:49.191Z,11.95
2022-12-19T06:31:19.312Z,12.57
2022-12-19T06:33:47.999Z,12.88
2022-12-19T06:36:19.880Z,12.63
2022-12-19T06:38:48.577Z,12.63
2022-12-19T06:41:34.372Z,12.82
2022-12-19T06:44:03.805Z,12.98
2022-12-19T06:46:33.730Z,12.55
2022-12-19T06:49:02.976Z,13.15
2022-12-19T06:51:31.633Z,13.18
2022-12-19T06:54:00.118Z,12.48
2022-12-19T06:56:28.654Z,12.57
2022-12-19T06:58:57.403Z,12.07
2022-12-19T07:01:31.749Z,12.57
2022-12-19T07:04:01.719Z,12.43
2022-12-19T07:06:30.800Z,13.82
2022-12-19T07:08:59.392Z,12.65
2022-12-19T07:11:27.963Z,13.63
2022-12-19T07:13:58.811Z,13.52
2022-12-19T07:16:27.466Z,12.85
2022-12-19T07:18:56.041Z,13.43
2022-12-19T07:21:25.921Z,13.32
2022-12-19T07:23:54.392Z,12.68
2022-12-19T07:26:23.426Z,12.40
2022-12-19T07:28:51.934Z,13.73
2022-12-19T07:31:20.531Z,13.15
2022-12-19T07:33:49.344Z,12.93
2022-12-19T07:36:17.878Z,12.85
2022-12-19T07:38:47.854Z,12.93
2022-12-19T07:41:16.440Z,12.50
2022-12-19T07:43:45.707Z,12.43
2022-12-19T07:46:14.219Z,13.02
2022-12-19T07:48:42.833Z,13.02
2022-12-19T07:51:11.316Z,13.90
2022-12-19T07:53:39.949Z,12.73
2022-12-19T07:56:10.247Z,13.20
2022-12-19T07:58:39.282Z,13.18
2022-12-19T08:01:07.982Z,12.30
2022-12-19T08:03:37.192Z,13.18
2022-12-19T08:06:07.447Z,12.10
2022-12-19T08:08:37.816Z,13.20
2022-12-19T08:11:12.393Z,13.25
2022-12-19T08:13:46.394Z,12.90
2022-12-19T08:16:15.803Z,13.65
2022-12-19T08:18:44.329Z,13.68
2022-12-19T08:21:12.836Z,13.52
2022-12-19T08:23:41.534Z,18.25
2022-12-19T08:26:14.579Z,17.58
2022-12-19T08:28:43.432Z,21.23
2022-12-19T08:31:13.292Z,41.53
2022-12-19T08:33:41.885Z,36.33
2022-12-19T08:36:12.501Z,29.08
2022-12-19T08:38:41.314Z,40.13
2022-12-19T08:41:11.409Z,32.47
2022-12-19T08:43:39.921Z,32.50
2022-12-19T08:46:09.380Z,31.95
2022-12-19T08:48:38.588Z,33.40
2022-12-19T08:51:08.636Z,33.22
2022-12-19T08:53:39.145Z,35.22
2022-12-19T08:56:11.884Z,34.70
2022-12-19T08:58:40.464Z,33.15
2022-12-19T09:01:13.570Z,32.70
2022-12-19T09:04:07.940Z,34.08
2022-12-19T09:06:30.704Z,31.50
2022-12-19T09:09:00.236Z,31.02
2022-12-19T09:11:31.307Z,32.63
2022-12-19T09:14:00.641Z,31.75
2022-12-19T09:16:29.851Z,32.92
2022-12-19T09:18:59.558Z,31.30
2022-12-19T09:21:31.271Z,32.63
2022-12-19T09:24:07.448Z,32.25
2022-12-19T09:26:38.764Z,32.05
2022-12-19T09:29:20.007Z,33.45
2022-12-19T09:31:55.633Z,34.45
2022-12-19T09:34:36.827Z,31.70
2022-12-19T09:37:08.038Z,32.10
2022-12-19T09:39:37.134Z,30.02
2022-12-19T09:42:32.246Z,32.13
2022-12-19T09:45:31.736Z,30.35
2022-12-19T09:48:01.773Z,30.52
2022-12-19T09:50:42.169Z,29.95
2022-12-19T09:53:18.614Z,28.83
2022-12-19T09:55:47.235Z,30.38
2022-12-19T09:58:22.225Z,28.75
2022-12-19T10:00:56.788Z,29.05
2022-12-19T10:03:32.307Z,29.23
2022-12-19T10:07:14.004Z,27.60
2022-12-19T10:10:29.179Z,27.75
2022-12-19T10:12:43.073Z,27.02
2022-12-19T10:15:04.609Z,28.02
2022-12-19T10:17:42.978Z,26.10
2022-12-19T10:20:21.139Z,26.50
2022-12-19T10:23:01.918Z,26.60
2022-12-19T10:25:38.476Z,26.25
2022-12-19T10:28:18.661Z,26.30
2022-12-19T10:30:52.543Z,26.58
2022-12-19T10:33:25.474Z,27.67
2022-12-19T10:35:56.133Z,27.60
2022-12-19T10:38:33.536Z,27.58
2022-12-19T10:41:15.106Z,25.45
2022-12-19T10:43:52.080Z,27.08
2022-12-19T10:46:26.701Z,26.70
2022-12-19T10:48:55.434Z,26.30
2022-12-19T10:51:26.089Z,26.35
2022-12-19T10:53:55.296Z,25.70
2022-12-19T10:56:25.536Z,26.60
2022-12-19T10:59:00.611Z,24.45
2022-12-19T11:01:34.440Z,25.42
2022-12-19T11:04:29.387Z,25.27
2022-12-19T11:07:19.823Z,23.58
2022-12-19T11:09:54.049Z,24.30
2022-12-19T11:17:32.641Z,23.52
2022-12-19T11:20:28.181Z,25.25
2022-12-19T11:28:30.110Z,23.70
2022-12-19T11:29:30.351Z,22.90
2022-12-19T11:30:07.046Z,24.17
2022-12-19T11:30:47.442Z,23.80
2022-12-19T11:32:40.932Z,22.80
2022-12-19T11:35:24.463Z,22.92
2022-12-19T11:37:58.394Z,25.48
2022-12-19T11:40:34.270Z,23.92
2022-12-19T11:46:01.527Z,22.55
2022-12-19T11:48:38.470Z,22.90
2022-12-19T11:51:16.348Z,21.75
2022-12-19T11:53:52.296Z,23.35
2022-12-19T11:56:22.944Z,22.90
2022-12-19T11:58:54.449Z,21.50
2022-12-19T12:01:37.131Z,21.80
2022-12-19T12:04:19.496Z,21.70
2022-12-19T12:06:51.129Z,21.42
2022-12-19T12:12:34.200Z,20.42
2022-12-19T12:18:40.998Z,21.30
2022-12-19T12:24:22.394Z,19.73
2022-12-19T12:31:12.903Z,20.70
2022-12-19T12:31:19.376Z,20.30
2022-12-19T12:31:39.144Z,20.63
2022-12-19T12:31:43.407Z,19.25
2022-12-19T12:32:06.159Z,18.90
2022-12-19T12:35:48.782Z,19.02
2022-12-19T12:39:05.039Z,18.98
2022-12-19T12:41:59.320Z,19.20
2022-12-19T12:44:33.428Z,19.05
2022-12-19T12:47:06.663Z,19.95
2022-12-19T12:49:40.178Z,18.48
2022-12-19T12:52:12.777Z,19.00
2022-12-19T12:54:44.816Z,17.63
2022-12-19T12:57:36.071Z,17.48
2022-12-19T13:00:27.545Z,18.95
2022-12-19T13:03:05.559Z,18.55
2022-12-19T13:05:52.627Z,17.98
2022-12-19T13:08:46.860Z,17.67
2022-12-19T13:11:37.193Z,18.60
2022-12-19T13:14:07.595Z,18.15
2022-12-19T13:16:53.235Z,18.00
2022-12-19T13:19:28.532Z,17.48
2022-12-19T13:22:18.445Z,18.08
2022-12-19T13:24:47.991Z,17.55
2022-12-19T13:27:49.465Z,17.23
2022-12-19T13:30:22.617Z,16.75
2022-12-19T13:33:11.287Z,17.20
2022-12-19T13:36:52.620Z,17.67
2022-12-19T13:39:56.403Z,17.50
2022-12-19T13:41:46.776Z,17.50
2022-12-19T13:44:15.709Z,17.83
2022-12-19T13:46:45.872Z,17.05
2022-12-19T13:49:16.553Z,17.63
2022-12-19T13:51:48.812Z,17.33
2022-12-19T13:54:22.933Z,16.52
2022-12-19T13:56:53.016Z,17.67
2022-12-19T13:59:22.193Z,17.27
2022-12-19T14:01:52.142Z,17.23
2022-12-19T14:04:28.799Z,17.10
2022-12-19T14:07:00.605Z,16.38
2022-12-19T14:11:25.110Z,16.83
2022-12-19T14:13:53.351Z,17.42
2022-12-19T14:15:31.274Z,16.38
2022-12-19T14:18:21.916Z,17.48
2022-12-19T14:22:04.136Z,16.75
2022-12-19T14:23:43.592Z,17.10
2022-12-19T14:28:20.290Z,17.88
2022-12-19T14:29:06.645Z,16.80
2022-12-19T14:31:35.869Z,16.88
2022-12-19T14:34:43.376Z,17.35
2022-12-19T14:36:55.910Z,17.88
2022-12-19T14:39:29.699Z,16.95
2022-12-19T14:42:48.360Z,16.50
2022-12-19T14:53:52.155Z,16.73
2022-12-19T14:53:52.155Z,16.38
2022-12-19T14:54:22.928Z,16.73
2022-12-19T14:56:11.392Z,16.35
2022-12-19T14:57:25.317Z,16.70
2022-12-19T15:01:07.489Z,17.00
2022-12-19T15:03:20.885Z,16.45
2022-12-19T15:05:49.581Z,16.50
2022-12-19T15:10:58.724Z,16.58
2022-12-19T15:11:53.823Z,16.55
2022-12-19T15:14:54.529Z,17.20
2022-12-19T15:17:27.086Z,16.60
2022-12-19T15:19:55.558Z,16.40
2022-12-19T15:22:24.494Z,17.42
2022-12-19T15:24:54.613Z,17.52
2022-12-19T15:27:23.085Z,16.83
2022-12-19T15:29:51.678Z,16.23
2022-12-19T15:32:20.314Z,17.67
2022-12-19T15:34:51.707Z,17.08
2022-12-19T15:37:20.485Z,17.02
2022-12-19T15:39:49.085Z,17.60
2022-12-19T15:42:21.703Z,17.55
2022-12-19T15:44:50.985Z,16.83
2022-12-19T15:47:23.009Z,16.80
2022-12-19T15:49:51.835Z,16.95
2022-12-19T15:52:21.088Z,17.73
2022-12-19T15:54:50.802Z,18.33
2022-12-19T15:57:27.428Z,18.08
2022-12-19T15:59:56.498Z,18.42
2022-12-19T16:02:42.771Z,17.98
2022-12-19T16:05:15.617Z,18.30
2022-12-19T16:07:44.408Z,18.05
2022-12-19T16:10:13.191Z,17.70
2022-12-19T16:12:44.796Z,18.65
2022-12-19T16:15:24.974Z,18.55
2022-12-19T16:17:53.583Z,17.63
2022-12-19T16:20:23.665Z,19.08
2022-12-19T16:22:52.388Z,17.30
2022-12-19T16:25:20.881Z,18.15
2022-12-19T16:27:54.573Z,19.00
2022-12-19T16:30:24.975Z,18.85
2022-12-19T16:32:53.838Z,19.08
2022-12-19T16:35:40.388Z,18.88
2022-12-19T16:38:12.165Z,18.52
2022-12-19T16:40:40.748Z,19.83
2022-12-19T16:43:15.634Z,18.48
2022-12-19T16:45:44.280Z,17.85
2022-12-19T16:48:19.890Z,21.17
2022-12-19T16:50:48.666Z,19.25
2022-12-19T16:53:17.231Z,18.88
2022-12-19T16:55:46.008Z,19.17
2022-12-19T16:58:19.750Z,18.75
2022-12-19T17:00:48.372Z,18.08
2022-12-19T17:03:28.408Z,18.70
2022-12-19T17:05:57.100Z,19.75
2022-12-19T17:08:25.706Z,19.63
2022-12-19T17:10:54.569Z,20.17
2022-12-19T17:13:24.717Z,19.75
2022-12-19T17:15:57.151Z,19.27
2022-12-19T17:18:28.986Z,18.67
2022-12-19T17:20:57.984Z,18.98
2022-12-19T17:23:29.147Z,19.58
2022-12-19T17:25:59.445Z,19.20
2022-12-19T17:28:29.333Z,20.08
2022-12-19T17:31:00.112Z,18.35
2022-12-19T17:33:33.263Z,19.48
2022-12-19T17:36:01.928Z,19.13
2022-12-19T17:38:30.497Z,20.45
2022-12-19T17:40:59.124Z,19.88
2022-12-19T17:43:28.962Z,19.50
2022-12-19T17:45:57.608Z,20.30
2022-12-19T17:48:28.893Z,19.35
2022-12-19T17:50:57.523Z,19.30
2022-12-19T17:53:26.109Z,19.85
2022-12-19T17:55:54.656Z,19.20
2022-12-19T17:58:23.204Z,18.67
2022-12-19T18:00:53.337Z,19.15
2022-12-19T18:03:23.520Z,19.30
2022-12-19T18:05:53.196Z,19.17
2022-12-19T18:08:26.520Z,18.45
2022-12-19T18:10:56.670Z,18.88
2022-12-19T18:13:26.222Z,19.50
2022-12-19T18:15:58.445Z,19.13
2022-12-19T18:18:29.207Z,19.15
2022-12-19T18:20:58.474Z,18.98
2022-12-19T18:23:27.191Z,19.20
2022-12-19T18:26:01.233Z,18.77
2022-12-19T18:28:30.831Z,18.13
2022-12-19T18:31:03.143Z,18.67
2022-12-19T18:33:36.181Z,18.15
2022-12-19T18:36:05.291Z,17.65
2022-12-19T18:38:33.881Z,18.00
2022-12-19T18:41:02.543Z,17.52
2022-12-19T18:43:32.769Z,18.23
2022-12-19T18:46:02.960Z,17.38
2022-12-19T18:48:33.952Z,17.65
2022-12-19T18:51:03.706Z,17.50
2022-12-19T18:53:35.580Z,17.55
2022-12-19T18:56:05.530Z,17.05
2022-12-19T18:58:34.402Z,16.70
2022-12-19T19:01:05.981Z,16.98
2022-12-19T19:03:36.126Z,17.33
2022-12-19T19:06:05.514Z,17.30
2022-12-19T19:08:35.058Z,15.85
2022-12-19T19:11:03.633Z,16.55
2022-12-19T19:13:32.545Z,17.48
2022-12-19T19:16:03.779Z,16.58
2022-12-19T19:18:35.394Z,16.88
2022-12-19T19:21:03.895Z,15.95
2022-12-19T19:23:36.275Z,16.20
2022-12-19T19:26:04.781Z,15.70
2022-12-19T19:28:33.283Z,16.15
2022-12-19T19:31:03.149Z,16.23
2022-12-19T19:33:33.478Z,15.82
2022-12-19T19:36:11.353Z,15.55
2022-12-19T19:38:41.380Z,15.65
2022-12-19T19:41:10.007Z,15.65
2022-12-19T19:43:38.473Z,15.27
2022-12-19T19:46:08.510Z,15.38
2022-12-19T19:48:37.192Z,15.73
2022-12-19T19:51:06.141Z,15.40
2022-12-19T19:53:36.158Z,14.38
2022-12-19T19:56:05.351Z,14.73
2022-12-19T19:58:33.805Z,15.43
2022-12-19T20:01:02.417Z,15.27
2022-12-19T20:03:32.466Z,14.95
2022-12-19T20:06:01.284Z,14.45
2022-12-19T20:08:36.989Z,15.13
2022-12-19T20:11:07.823Z,15.90
2022-12-19T20:13:36.404Z,14.75
2022-12-19T20:16:06.569Z,15.15
2022-12-19T20:18:36.792Z,14.55
2022-12-19T20:21:09.292Z,14.30
2022-12-19T20:23:40.921Z,15.18
2022-12-19T20:26:09.375Z,13.85
2022-12-19T20:28:42.293Z,13.77
2022-12-19T20:31:16.287Z,14.63
2022-12-19T20:33:46.409Z,14.20
2022-12-19T20:36:15.439Z,13.77
2022-12-19T20:38:44.040Z,13.45
2022-12-19T20:41:12.447Z,12.98
2022-12-19T20:43:41.864Z,13.40
2022-12-19T20:46:11.861Z,14.05
2022-12-19T20:48:40.681Z,12.70
2022-12-19T20:51:10.628Z,13.52
2022-12-19T20:53:39.790Z,12.18
2022-12-19T20:56:09.522Z,13.13
2022-12-19T20:58:39.261Z,13.23
2022-12-19T21:01:09.612Z,13.45
2022-12-19T21:03:38.936Z,12.88
2022-12-19T21:06:10.511Z,12.60
2022-12-19T21:08:39.252Z,12.43
2022-12-19T21:11:08.313Z,12.30
2022-12-19T21:13:37.138Z,12.05
2022-12-19T21:16:08.791Z,12.20
2022-12-19T21:18:37.965Z,12.10
2022-12-19T21:21:07.195Z,12.20
2022-12-19T21:23:37.133Z,12.15
2022-12-19T21:26:06.388Z,13.05
2022-12-19T21:28:34.856Z,12.10
2022-12-19T21:31:05.265Z,12.40
2022-12-19T21:33:33.962Z,12.43
2022-12-19T21:36:08.289Z,11.45
2022-12-19T21:38:38.463Z,12.30
2022-12-19T21:41:07.834Z,11.93
2022-12-19T21:43:36.978Z,12.02
2022-12-19T21:46:10.265Z,12.63
2022-12-19T21:48:39.538Z,11.52
2022-12-19T21:51:08.176Z,11.65
2022-12-19T21:53:38.145Z,11.73
2022-12-19T21:56:08.128Z,11.13
2022-12-19T21:58:36.801Z,11.63
2022-12-19T22:01:08.458Z,11.15
2022-12-19T22:03:37.498Z,11.15
2022-12-19T22:06:08.772Z,11.02
2022-12-19T22:08:38.693Z,11.10
2022-12-19T22:11:13.483Z,11.00
2022-12-19T22:13:42.116Z,11.50
2022-12-19T22:16:11.668Z,10.60
2022-12-19T22:18:40.223Z,10.60
2022-12-19T22:21:09.241Z,10.68
2022-12-19T22:23:39.199Z,11.10
2022-12-19T22:26:09.077Z,10.68
2022-12-19T22:28:38.945Z,10.23
2022-12-19T22:31:16.640Z,10.82
2022-12-19T22:33:45.312Z,10.50
2022-12-19T22:36:15.496Z,10.23
2022-12-19T22:38:47.106Z,10.07
2022-12-19T22:41:16.816Z,9.93
2022-12-19T22:43:45.523Z,10.05
2022-12-19T22:46:14.589Z,9.80
2022-12-19T22:48:43.353Z,9.32
2022-12-19T22:51:11.808Z,10.25
2022-12-19T22:53:40.798Z,10.35
2022-12-19T22:56:13.866Z,10.70
2022-12-19T22:58:43.573Z,10.15
2022-12-19T23:01:14.951Z,9.73
2022-12-19T23:03:43.639Z,10.02
2022-12-19T23:06:12.353Z,9.65
2022-12-19T23:08:41.021Z,10.05
2022-12-19T23:11:12.123Z,8.88
2022-12-19T23:13:40.717Z,9.32
2022-12-19T23:16:09.569Z,9.07
2022-12-19T23:18:38.283Z,9.10
2022-12-19T23:21:09.270Z,9.63
2022-12-19T23:23:40.008Z,9.32
2022-12-19T23:26:15.569Z,9.63
2022-12-19T23:28:45.048Z,9.10
2022-12-19T23:31:14.432Z,9.48
2022-12-19T23:33:42.916Z,9.18
2022-12-19T23:36:11.797Z,8.98
2022-12-19T23:38:42.193Z,8.80
2022-12-19T23:41:13.318Z,8.57
2022-12-19T23:43:42.100Z,8.75
2022-12-19T23:46:12.824Z,8.63
2022-12-19T23:48:41.405Z,8.65
2022-12-19T23:51:14.213Z,8.95
2022-12-19T23:53:42.789Z,9.38
2022-12-19T23:56:14.865Z,9.02
2022-12-19T23:58:43.411Z,8.85
